Time;durP1;ratioP1;P1;durP2;ratioP2;P2;SDS_P1;SDS_P2;PMS_P1;PMS_P2;Temp;Humidity;BMP_temperature;BMP_pressure;BME280_temperature;BME280_humidity;BME280_pressure;Samples;Min_cycle;Max_cycle;Signal;HPM_P1;HPM_P2
2023/05/03 00:01:25;;;;;;;4.53;2.60;;;7.50;99.90;;;;;;4991023;28;20049;-68
2023/05/03 00:03:52;;;;;;;7.28;2.88;;;7.60;99.90;;;;;;4991114;28;20551;-68
2023/05/03 00:06:18;;;;;;;5.97;2.90;;;;;;;;;;4990966;28;20439;-68
2023/05/03 00:08:44;;;;;;;6.70;2.70;;;7.50;99.90;;;;;;4991110;28;20049;-68
2023/05/03 00:11:10;;;;;;;6.38;3.03;;;;;;;;;;4994473;28;20034;-68
2023/05/03 00:13:36;;;;;;;4.95;2.70;;;7.40;99.90;;;;;;4997263;28;20500;-68
2023/05/03 00:16:02;;;;;;;4.55;2.72;;;;;;;;;;4981077;28;20038;-68
2023/05/03 00:18:29;;;;;;;6.97;3.05;;;;;;;;;;4997261;28;20046;-68
2023/05/03 00:20:55;;;;;;;7.35;3.10;;;7.50;99.90;;;;;;4980961;28;20053;-68
2023/05/03 00:23:22;;;;;;;8.13;3.53;;;;;;;;;;4997705;28;20145;-68
2023/05/03 00:25:57;;;;;;;8.57;2.92;;;7.80;99.90;;;;;;4997369;28;20050;-68
2023/05/03 00:28:24;;;;;;;9.63;3.40;;;7.80;99.90;;;;;;4997222;28;20034;-68
2023/05/03 00:30:51;;;;;;;6.85;3.53;;;7.70;99.90;;;;;;4997219;28;20038;-68
2023/05/03 00:33:16;;;;;;;5.22;3.38;;;7.70;99.90;;;;;;4981132;28;20034;-68
2023/05/03 00:35:43;;;;;;;4.35;3.10;;;7.80;99.90;;;;;;4998661;28;20101;-68
2023/05/03 00:38:08;;;;;;;14.05;3.45;;;7.80;99.90;;;;;;4997449;28;20042;-68
2023/05/03 00:40:34;;;;;;;4.20;3.30;;;7.80;99.90;;;;;;4997029;28;20134;-67
2023/05/03 00:43:00;;;;;;;5.63;3.45;;;7.90;99.90;;;;;;4997067;28;20038;-68
2023/05/03 00:45:26;;;;;;;10.75;3.53;;;;;;;;;;4997121;28;20042;-68
2023/05/03 00:47:52;;;;;;;7.13;3.72;;;;;;;;;;4998472;28;20500;-68
2023/05/03 00:50:18;;;;;;;7.22;3.53;;;;;;;;;;4996847;28;20092;-68
2023/05/03 00:52:44;;;;;;;5.43;3.30;;;7.90;99.90;;;;;;4996897;28;20133;-68
2023/05/03 00:55:11;;;;;;;5.45;3.00;;;7.80;99.90;;;;;;4996988;28;20117;-68
2023/05/03 00:57:36;;;;;;;8.00;3.90;;;;;;;;;;4996768;28;20184;-67
2023/05/03 01:00:03;;;;;;;6.40;3.20;;;;;;;;;;4997125;28;20129;-68
2023/05/03 01:02:29;;;;;;;7.43;3.30;;;;;;;;;;4997080;28;20049;-67
2023/05/03 01:04:55;;;;;;;6.90;3.45;;;;;;;;;;4998239;28;20045;-68
2023/05/03 01:07:29;;;;;;;4.97;3.10;;;7.80;99.90;;;;;;4996796;28;20499;-68
2023/05/03 01:10:07;;;;;;;4.90;3.30;;;7.80;99.90;;;;;;4996756;28;20511;-67
2023/05/03 01:12:46;;;;;;;8.68;3.25;;;7.80;99.90;;;;;;4996810;28;20042;-67
2023/05/03 01:15:49;;;;;;;6.05;3.25;;;8.00;99.90;;;;;;4997098;28;20038;-67
2023/05/03 01:18:23;;;;;;;4.57;3.28;;;8.00;99.90;;;;;;4962845;28;20526;-67
2023/05/03 01:20:49;;;;;;;;;;;;;;;;;;4998197;28;20042;-68
2023/05/03 01:23:23;;;;;;;4.82;3.10;;;7.90;99.90;;;;;;4994188;28;19971;-68
2023/05/03 01:25:53;;;;;;;8.23;3.28;;;7.80;99.90;;;;;;4994133;28;20192;-67
2023/05/03 01:28:18;;;;;;;6.15;3.25;;;7.80;99.90;;;;;;4994401;28;20415;-68
2023/05/03 01:30:46;;;;;;;6.22;3.25;;;8.00;99.90;;;;;;4993765;28;20042;-68
2023/05/03 01:33:16;;;;;;;6.65;2.75;;;;;;;;;;4994299;28;20416;-68
2023/05/03 01:36:03;;;;;;;8.65;3.33;;;7.80;99.90;;;;;;4994549;28;20423;-68
2023/05/03 01:38:35;;;;;;;7.53;3.30;;;7.90;99.90;;;;;;4977540;28;20046;-68
2023/05/03 01:41:02;;;;;;;8.45;3.20;;;;;;;;;;4993762;28;20399;-68
2023/05/03 01:43:31;;;;;;;5.22;2.95;;;8.10;99.90;;;;;;4977328;28;20054;-68
2023/05/03 01:45:57;;;;;;;5.20;3.45;;;7.90;99.90;;;;;;4993297;28;20092;-68
2023/05/03 01:48:23;;;;;;;4.80;3.03;;;7.90;99.90;;;;;;4993352;28;20416;-68
2023/05/03 01:50:49;;;;;;;14.10;3.33;;;;;;;;;;4993162;28;20050;-68
2023/05/03 01:53:15;;;;;;;6.85;3.42;;;;;;;;;;4993060;28;20058;-68
2023/05/03 01:55:41;;;;;;;5.85;3.03;;;;;;;;;;4977202;28;20077;-68
2023/05/03 01:58:07;;;;;;;3.55;2.88;;;7.90;99.90;;;;;;4993267;28;20080;-68
2023/05/03 02:00:33;;;;;;;4.13;2.85;;;;;;;;;;4992848;28;20041;-68
2023/05/03 02:02:58;;;;;;;6.05;3.17;;;8.00;99.90;;;;;;4993344;28;20042;-68
2023/05/03 02:05:24;;;;;;;5.07;3.53;;;8.00;99.90;;;;;;4993270;28;20049;-68
2023/05/03 02:07:50;;;;;;;7.25;3.42;;;8.20;99.90;;;;;;4992830;28;20053;-68
2023/05/03 02:10:16;;;;;;;5.10;3.33;;;8.20;99.90;;;;;;4992681;28;20046;-68
2023/05/03 02:12:42;;;;;;;4.85;3.35;;;;;;;;;;4976595;28;20038;-68
2023/05/03 02:15:09;;;;;;;7.13;3.53;;;7.90;99.90;;;;;;4993036;28;20042;-68
2023/05/03 02:17:34;;;;;;;7.00;3.78;;;8.20;99.90;;;;;;4992912;28;20111;-68
2023/05/03 02:20:00;;;;;;;5.00;3.50;;;;;;;;;;4993794;28;20504;-68
2023/05/03 02:22:26;;;;;;;5.90;3.53;;;8.10;99.90;;;;;;4992586;28;20050;-68
2023/05/03 02:24:51;;;;;;;4.00;3.20;;;8.20;99.90;;;;;;4992533;28;20039;-68
2023/05/03 02:27:17;;;;;;;8.75;3.67;;;8.00;99.90;;;;;;4992507;28;20085;-68
2023/05/03 02:29:43;;;;;;;6.97;3.25;;;;;;;;;;4992363;28;20038;-68
2023/05/03 02:32:09;;;;;;;6.47;3.25;;;;;;;;;;4992640;28;20590;-68
2023/05/03 02:34:35;;;;;;;4.82;3.20;;;;;;;;;;4976045;28;20089;-68
2023/05/03 02:37:01;;;;;;;5.15;3.17;;;8.20;99.90;;;;;;4992326;28;20147;-68
2023/05/03 02:39:28;;;;;;;7.22;3.70;;;8.00;99.90;;;;;;4992217;28;20045;-68
2023/05/03 02:41:54;;;;;;;5.03;2.90;;;;;;;;;;4993705;28;20452;-68
2023/05/03 02:44:20;;;;;;;7.38;3.03;;;;;;;;;;4992241;28;20089;-68
2023/05/03 02:46:46;;;;;;;7.15;3.80;;;;;;;;;;4993024;28;20070;-68
2023/05/03 02:49:12;;;;;;;6.75;3.65;;;;;;;;;;4993098;28;20190;-68
2023/05/03 02:51:38;;;;;;;8.05;2.63;;;;;;;;;;4992115;28;20567;-68
2023/05/03 02:54:03;;;;;;;7.93;2.55;;;8.20;99.90;;;;;;4992087;28;20373;-67
2023/05/03 02:56:29;;;;;;;4.47;3.00;;;8.20;99.90;;;;;;4991870;28;20030;-67
2023/05/03 02:58:55;;;;;;;5.25;2.28;;;8.20;99.90;;;;;;4993171;28;20113;-67
2023/05/03 03:01:21;;;;;;;10.80;2.95;;;8.30;99.90;;;;;;4992242;28;20039;-68
2023/05/03 03:03:47;;;;;;;6.28;2.90;;;8.30;99.90;;;;;;4990402;28;20042;-68
2023/05/03 03:06:13;;;;;;;5.20;2.83;;;;;;;;;;4992979;28;20078;-68
2023/05/03 03:08:39;;;;;;;5.15;2.85;;;;;;;;;;4991566;28;20562;-68
2023/05/03 03:11:05;;;;;;;8.57;2.67;;;8.10;99.90;;;;;;4975405;28;20080;-68
2023/05/03 03:13:31;;;;;;;4.97;2.92;;;;;;;;;;4991601;28;20056;-69
2023/05/03 03:15:57;;;;;;;10.18;3.60;;;;;;;;;;4991278;28;20049;-68
2023/05/03 03:18:23;;;;;;;11.70;3.50;;;8.20;99.90;;;;;;4991754;28;20117;-68
2023/05/03 03:20:48;;;;;;;5.90;3.30;;;8.10;99.90;;;;;;4991278;28;20034;-68
2023/05/03 03:23:14;;;;;;;6.20;2.95;;;8.00;99.90;;;;;;4991327;28;20042;-68
2023/05/03 03:25:41;;;;;;;3.85;2.70;;;8.00;99.90;;;;;;4991480;28;20042;-68
2023/05/03 03:28:06;;;;;;;4.82;2.70;;;7.90;99.90;;;;;;4992531;28;20041;-68
2023/05/03 03:30:32;;;;;;;5.75;3.00;;;8.00;99.90;;;;;;4991297;28;20038;-68
2023/05/03 03:32:58;;;;;;;7.50;3.75;;;;;;;;;;4991399;28;20562;-68
2023/05/03 03:35:24;;;;;;;8.20;3.00;;;;;;;;;;4975058;28;20460;-68
2023/05/03 03:37:50;;;;;;;7.57;2.75;;;;;;;;;;4992021;28;20061;-68
2023/05/03 03:40:16;;;;;;;5.95;3.28;;;;;;;;;;4991044;28;20046;-68
2023/05/03 03:42:42;;;;;;;6.78;3.22;;;7.90;99.90;;;;;;4991254;28;20046;-68
2023/05/03 03:45:08;;;;;;;6.88;2.70;;;;;;;;;;4974484;28;20427;-68
2023/05/03 03:47:34;;;;;;;7.85;3.83;;;7.70;99.90;;;;;;4990989;28;20056;-69
2023/05/03 03:50:03;;;;;;;5.30;2.85;;;7.90;99.90;;;;;;4990901;28;20567;-68
2023/05/03 03:52:29;;;;;;;6.18;3.05;;;7.80;99.90;;;;;;4991058;28;20050;-68
2023/05/03 03:54:55;;;;;;;4.63;2.85;;;7.90;99.90;;;;;;4974795;28;20038;-68
2023/05/03 03:57:21;;;;;;;5.43;2.65;;;7.70;99.90;;;;;;4990979;28;20046;-69
2023/05/03 03:59:46;;;;;;;7.38;2.70;;;7.90;99.90;;;;;;4974528;28;20038;-68
2023/05/03 04:02:12;;;;;;;5.88;2.75;;;7.70;99.90;;;;;;4974750;28;20031;-68
2023/05/03 04:04:38;;;;;;;11.27;2.72;;;;;;;;;;4990796;28;20054;-68
2023/05/03 04:07:04;;;;;;;7.03;2.85;;;;;;;;;;4990836;28;20042;-68
2023/05/03 04:09:30;;;;;;;6.28;3.10;;;;;;;;;;4992125;28;20085;-68
2023/05/03 04:11:56;;;;;;;11.13;3.17;;;;;;;;;;4992281;28;20074;-68
2023/05/03 04:14:21;;;;;;;6.07;2.80;;;7.80;99.90;;;;;;4990766;28;20038;-69
2023/05/03 04:16:47;;;;;;;3.65;2.80;;;7.80;99.90;;;;;;4990739;28;20038;-68
2023/05/03 04:19:13;;;;;;;8.85;3.08;;;;;;;;;;4990609;28;20173;-69
2023/05/03 04:21:39;;;;;;;5.72;3.25;;;;;;;;;;4974631;28;20228;-68
2023/05/03 04:24:06;;;;;;;5.63;3.28;;;8.00;99.90;;;;;;4990674;28;20173;-68
2023/05/03 04:26:32;;;;;;;5.22;3.63;;;7.70;99.90;;;;;;4990981;28;20054;-68
2023/05/03 04:28:58;;;;;;;5.20;4.03;;;7.90;99.90;;;;;;4990756;28;20049;-67
2023/05/03 04:31:24;;;;;;;5.28;3.17;;;7.80;99.90;;;;;;4990740;28;20046;-68
2023/05/03 04:33:50;;;;;;;4.88;3.00;;;7.90;99.90;;;;;;4993567;28;20053;-68
2023/05/03 04:36:15;;;;;;;3.80;2.50;;;7.80;99.90;;;;;;4974536;28;20043;-68
2023/05/03 04:38:42;;;;;;;6.35;2.67;;;7.80;99.90;;;;;;4974335;28;20041;-68
2023/05/03 04:41:08;;;;;;;7.13;3.05;;;7.90;99.90;;;;;;4990763;28;20129;-68
2023/05/03 04:43:34;;;;;;;7.68;3.60;;;8.10;99.90;;;;;;4992027;28;20407;-68
2023/05/03 04:46:02;;;;;;;4.07;2.70;;;;;;;;;;4992517;28;20049;-68
2023/05/03 04:48:28;;;;;;;6.40;2.97;;;;;;;;;;4990562;28;20189;-68
2023/05/03 04:50:54;;;;;;;7.85;3.78;;;;;;;;;;4974531;28;20514;-69
2023/05/03 04:53:20;;;;;;;4.93;3.13;;;;;;;;;;4990475;28;20086;-68
2023/05/03 04:55:46;;;;;;;9.88;3.47;;;;;;;;;;4990557;28;20069;-68
2023/05/03 04:58:12;;;;;;;6.75;3.40;;;;;;;;;;4992363;28;20078;-68
2023/05/03 05:00:38;;;;;;;5.75;2.35;;;;;;;;;;4994563;28;20381;-68
2023/05/03 05:03:05;;;;;;;6.80;2.95;;;;;;;;;;4994476;28;20042;-68
2023/05/03 05:05:31;;;;;;;7.07;2.72;;;;;;;;;;4995079;28;20042;-68
2023/05/03 05:07:57;;;;;;;8.52;2.80;;;8.00;99.90;;;;;;4995281;28;20096;-68
2023/05/03 05:10:23;;;;;;;5.05;2.60;;;;;;;;;;4993958;28;20038;-68
2023/05/03 05:12:51;;;;;;;6.15;2.60;;;;;;;;;;4994393;28;20524;-68
2023/05/03 05:15:17;;;;;;;6.85;3.13;;;;;;;;;;4993932;28;20085;-68
2023/05/03 05:17:43;;;;;;;3.35;2.45;;;;;;;;;;4994991;28;20043;-69
2023/05/03 05:20:11;;;;;;;5.97;3.45;;;;;;;;;;4993601;28;20042;-69
2023/05/03 05:22:37;;;;;;;8.25;2.40;;;8.40;99.90;;;;;;4994012;28;20441;-68
2023/05/03 05:25:03;;;;;;;6.50;2.72;;;;;;;;;;4993691;28;20093;-67
2023/05/03 05:27:29;;;;;;;5.47;2.35;;;;;;;;;;4976366;28;20142;-67
2023/05/03 05:29:56;;;;;;;7.88;2.72;;;;;;;;;;4985923;28;20567;-69
2023/05/03 05:32:22;;;;;;;5.50;2.67;;;;;;;;;;4982061;28;20080;-68
2023/05/03 05:34:54;;;;;;;2.58;1.45;;;;;;;;;;4979386;28;20081;-67
2023/05/03 05:37:20;;;;;;;4.47;1.80;;;;;;;;;;4979987;28;20443;-68
2023/05/03 05:39:46;;;;;;;6.70;2.17;;;;;;;;;;4983608;28;20096;-68
2023/05/03 05:42:11;;;;;;;5.03;2.35;;;;;;;;;;4988900;28;20038;-68
2023/05/03 05:44:37;;;;;;;4.68;2.22;;;8.80;99.90;;;;;;4991061;28;20065;-67
2023/05/03 05:47:03;;;;;;;3.58;1.73;;;;;;;;;;4987457;28;20044;-68
2023/05/03 05:49:29;;;;;;;6.03;1.98;;;;;;;;;;4987368;28;20064;-67
2023/05/03 05:51:56;;;;;;;7.05;2.25;;;;;;;;;;4988934;28;20046;-67
2023/05/03 05:54:22;;;;;;;6.93;2.00;;;;;;;;;;4987747;28;20431;-67
2023/05/03 05:56:48;;;;;;;6.97;1.65;;;;;;;;;;4987986;28;20046;-67
2023/05/03 05:59:14;;;;;;;5.45;2.20;;;;;;;;;;4983841;28;20046;-68
2023/05/03 06:01:43;;;;;;;6.10;2.22;;;;;;;;;;4988163;28;20034;-68
2023/05/03 06:04:09;;;;;;;3.10;1.30;;;9.20;99.90;;;;;;5023686;28;20046;-68
2023/05/03 06:06:35;;;;;;;4.47;1.58;;;9.10;99.90;;;;;;4993849;28;20512;-67
2023/05/03 06:09:01;;;;;;;3.22;1.08;;;9.10;99.90;;;;;;4992731;28;20050;-67
2023/05/03 06:11:26;;;;;;;2.47;1.10;;;9.30;99.90;;;;;;4993168;28;20566;-67
2023/05/03 06:13:52;;;;;;;3.28;1.25;;;9.40;99.90;;;;;;4976770;28;20042;-67
2023/05/03 06:16:18;;;;;;;3.38;1.30;;;;;;;;;;4992809;28;20042;-67
2023/05/03 06:18:44;;;;;;;5.57;1.65;;;;;;;;;;4993034;28;20516;-67
2023/05/03 06:21:10;;;;;;;11.88;2.53;;;;;;;;;;4992556;28;20047;-67
2023/05/03 06:23:38;;;;;;;14.30;2.40;;;;;;;;;;4992679;28;20196;-67
2023/05/03 06:26:04;;;;;;;4.82;1.77;;;9.40;99.90;;;;;;4992518;28;20047;-67
2023/05/03 06:28:30;;;;;;;8.27;2.25;;;;;;;;;;4976316;28;20049;-68
2023/05/03 06:30:55;;;;;;;2.67;0.93;;;9.60;99.90;;;;;;4993767;28;20042;-68
2023/05/03 06:33:21;;;;;;;4.80;1.13;;;;;;;;;;4993806;28;20165;-68
2023/05/03 06:35:48;;;;;;;3.90;1.23;;;;;;;;;;4992616;28;20034;-67
2023/05/03 06:38:13;;;;;;;3.58;1.35;;;9.80;99.90;;;;;;4992510;28;20042;-67
2023/05/03 06:40:40;;;;;;;4.72;1.20;;;;;;;;;;4992485;28;20041;-68
2023/05/03 06:43:06;;;;;;;4.60;1.42;;;10.00;99.90;;;;;;4992744;28;20046;-68
2023/05/03 06:45:32;;;;;;;5.90;1.65;;;;;;;;;;4993574;28;20042;-67
2023/05/03 06:47:58;;;;;;;6.05;1.83;;;10.00;99.90;;;;;;4992173;28;20038;-68
2023/05/03 06:50:24;;;;;;;4.47;1.35;;;;;;;;;;4992360;28;20420;-67
2023/05/03 06:52:50;;;;;;;2.13;0.93;;;10.20;99.90;;;;;;4992218;28;20526;-66
2023/05/03 06:55:16;;;;;;;8.55;2.20;;;;;;;;;;4993229;28;20113;-66
2023/05/03 06:57:42;;;;;;;4.95;1.63;;;10.20;99.90;;;;;;4991791;28;20554;-66
2023/05/03 07:00:09;;;;;;;1.60;1.02;;;;;;;;;;4991984;28;20054;-66
2023/05/03 07:02:36;;;;;;;4.38;1.60;;;10.40;99.90;;;;;;4992083;28;20105;-68
2023/05/03 07:05:01;;;;;;;3.95;1.08;;;10.50;99.90;;;;;;4991874;28;20546;-68
2023/05/03 07:07:27;;;;;;;4.05;1.23;;;10.50;99.90;;;;;;4991973;28;20054;-69
2023/05/03 07:09:53;;;;;;;5.32;1.20;;;10.40;99.90;;;;;;4991811;28;20419;-68
2023/05/03 07:12:19;;;;;;;7.90;1.00;;;;;;;;;;4993337;28;20122;-68
2023/05/03 07:14:44;;;;;;;4.18;1.63;;;10.50;99.90;;;;;;4991799;28;20363;-68
2023/05/03 07:17:10;;;;;;;4.78;1.30;;;10.40;99.90;;;;;;4992914;28;20068;-68
2023/05/03 07:19:38;;;;;;;3.75;0.82;;;10.30;99.90;;;;;;4990943;28;20046;-68
2023/05/03 07:22:04;;;;;;;4.65;1.83;;;10.50;99.90;;;;;;4991316;28;20209;-68
2023/05/03 07:24:29;;;;;;;2.47;1.40;;;10.60;99.90;;;;;;4975493;28;20601;-68
2023/05/03 07:26:56;;;;;;;4.47;1.17;;;10.50;99.90;;;;;;4992697;28;20044;-68
2023/05/03 07:29:22;;;;;;;1.85;0.90;;;10.50;99.90;;;;;;4992693;28;20046;-68
2023/05/03 07:31:48;;;;;;;9.65;1.17;;;;;;;;;;4991519;28;20044;-68
2023/05/03 07:34:14;;;;;;;3.72;1.38;;;;;;;;;;4992605;28;20054;-68
2023/05/03 07:36:40;;;;;;;2.50;1.20;;;;;;;;;;4991719;28;20093;-68
2023/05/03 07:39:06;;;;;;;3.30;1.08;;;;;;;;;;4992306;28;20034;-68
2023/05/03 07:41:32;;;;;;;3.72;1.20;;;;;;;;;;4991359;28;20046;-68
2023/05/03 07:43:58;;;;;;;4.78;1.30;;;;;;;;;;4992641;28;20046;-68
2023/05/03 07:46:24;;;;;;;4.93;1.33;;;11.00;99.90;;;;;;4991335;28;20096;-68
2023/05/03 07:48:49;;;;;;;6.85;1.45;;;11.10;99.90;;;;;;4991231;28;20511;-68
2023/05/03 07:51:15;;;;;;;4.13;1.25;;;10.90;99.90;;;;;;4991328;28;20034;-68
2023/05/03 07:53:41;;;;;;;2.95;1.30;;;;;;;;;;4990957;28;20492;-68
2023/05/03 07:56:07;;;;;;;4.68;1.30;;;;;;;;;;4992239;28;20057;-68
2023/05/03 07:58:33;;;;;;;3.03;1.13;;;10.90;99.90;;;;;;4990898;28;20034;-68
2023/05/03 08:00:58;;;;;;;3.15;1.10;;;10.60;99.90;;;;;;4991100;28;20070;-68
2023/05/03 08:03:24;;;;;;;4.30;1.20;;;10.50;99.90;;;;;;4990913;28;20055;-68
2023/05/03 08:05:49;;;;;;;4.25;1.27;;;10.70;99.90;;;;;;4990911;28;20396;-68
2023/05/03 08:08:15;;;;;;;16.65;2.20;;;;;;;;;;4990505;28;20038;-69
2023/05/03 08:10:41;;;;;;;4.90;1.20;;;11.00;99.90;;;;;;4991732;28;20043;-69
2023/05/03 08:13:07;;;;;;;4.93;1.63;;;11.20;99.90;;;;;;4976569;28;20484;-69
2023/05/03 08:15:33;;;;;;;5.28;1.42;;;10.90;99.90;;;;;;4990808;28;20046;-69
2023/05/03 08:17:59;;;;;;;4.82;1.30;;;;;;;;;;4991097;28;20041;-69
2023/05/03 08:20:26;;;;;;;3.85;1.67;;;10.90;99.90;;;;;;4974493;28;20050;-69
2023/05/03 08:22:55;;;;;;;3.08;1.40;;;11.00;99.90;;;;;;4974495;28;20050;-69
2023/05/03 08:25:24;;;;;;;4.78;1.35;;;10.90;99.90;;;;;;4990760;28;20042;-69
2023/05/03 08:27:51;;;;;;;3.65;1.42;;;11.20;99.90;;;;;;4990648;28;20495;-69
2023/05/03 08:30:17;;;;;;;4.07;1.15;;;;;;;;;;4990688;28;20082;-69
2023/05/03 08:32:43;;;;;;;1.95;1.20;;;;;;;;;;4993550;28;20046;-69
2023/05/03 08:35:09;;;;;;;3.28;1.58;;;;;;;;;;4994917;28;20038;-69
2023/05/03 08:37:39;;;;;;;5.07;1.48;;;11.00;99.90;;;;;;4994614;28;20124;-69
2023/05/03 08:40:06;;;;;;;2.97;1.38;;;11.10;99.90;;;;;;4994471;28;20053;-70
2023/05/03 08:42:32;;;;;;;6.00;1.38;;;10.90;99.90;;;;;;4979368;28;20463;-70
2023/05/03 08:44:58;;;;;;;9.13;1.55;;;11.00;99.90;;;;;;4994464;28;20093;-70
2023/05/03 08:47:26;;;;;;;4.38;1.17;;;11.00;99.90;;;;;;4978179;28;20042;-70
2023/05/03 08:49:52;;;;;;;3.45;1.48;;;11.10;99.90;;;;;;4978325;28;20184;-70
2023/05/03 08:52:20;;;;;;;6.65;2.03;;;11.20;99.90;;;;;;4994458;28;20049;-70
2023/05/03 08:54:48;;;;;;;8.02;2.15;;;;;;;;;;4994315;28;20050;-69
2023/05/03 08:57:15;;;;;;;3.00;1.40;;;11.40;99.90;;;;;;4994504;28;20514;-70
2023/05/03 08:59:53;;;;;;;2.78;1.20;;;11.50;99.90;;;;;;4994701;28;20041;-70
2023/05/03 09:02:18;;;;;;;4.65;1.20;;;11.50;99.90;;;;;;4978013;28;20416;-70
2023/05/03 09:04:44;;;;;;;5.07;1.60;;;11.10;99.90;;;;;;4994124;28;20034;-70
2023/05/03 09:07:11;;;;;;;4.43;1.50;;;11.10;99.90;;;;;;4993959;28;20049;-70
2023/05/03 09:09:37;;;;;;;10.88;1.30;;;11.00;99.90;;;;;;4994142;28;20069;-70
2023/05/03 09:12:03;;;;;;;5.00;1.42;;;11.10;99.90;;;;;;4977810;28;20070;-70
2023/05/03 09:14:29;;;;;;;2.70;1.20;;;11.10;99.90;;;;;;4994060;28;20042;-70
2023/05/03 09:17:12;;;;;;;2.83;1.30;;;11.20;99.90;;;;;;4994081;28;20030;-70
2023/05/03 09:19:58;;;;;;;4.72;1.50;;;11.20;99.90;;;;;;4993692;28;20124;-70
2023/05/03 09:22:29;;;;;;;3.58;1.23;;;11.50;99.90;;;;;;4993891;28;20046;-69
2023/05/03 09:25:00;;;;;;;5.22;1.63;;;11.60;99.90;;;;;;4993711;28;20420;-70
2023/05/03 09:27:27;;;;;;;2.67;1.40;;;11.70;99.90;;;;;;4993759;28;20125;-70
2023/05/03 09:29:53;;;;;;;8.02;2.25;;;11.70;99.90;;;;;;4993404;28;20073;-70
2023/05/03 09:32:21;;;;;;;6.22;1.77;;;11.60;99.90;;;;;;4993658;28;20034;-70
2023/05/03 09:34:47;;;;;;;3.00;1.27;;;11.50;99.90;;;;;;4993602;28;20053;-70
2023/05/03 09:37:13;;;;;;;4.28;1.45;;;11.50;99.90;;;;;;4993465;28;20416;-70
2023/05/03 09:39:44;;;;;;;2.42;1.30;;;11.70;99.90;;;;;;4977741;28;20042;-70
2023/05/03 09:42:17;;;;;;;11.68;2.33;;;11.80;99.90;;;;;;4993447;28;20050;-70
2023/05/03 09:44:47;;;;;;;5.68;1.73;;;11.50;99.90;;;;;;4976552;28;20050;-70
2023/05/03 09:47:13;;;;;;;3.47;1.27;;;11.50;99.90;;;;;;4993299;28;20039;-70
2023/05/03 09:49:40;;;;;;;11.40;2.53;;;11.60;99.90;;;;;;4993166;28;20050;-69
2023/05/03 09:52:07;;;;;;;7.78;1.88;;;;;;;;;;4993302;28;20042;-70
2023/05/03 09:54:36;;;;;;;2.42;1.48;;;;;;;;;;4993157;28;20046;-69
2023/05/03 09:57:06;;;;;;;5.32;1.55;;;11.80;99.90;;;;;;4993041;28;20042;-69
2023/05/03 09:59:33;;;;;;;3.08;1.55;;;11.90;99.90;;;;;;4993224;28;20042;-70
2023/05/03 10:02:01;;;;;;;3.40;1.38;;;11.60;99.90;;;;;;4993059;28;20121;-70
2023/05/03 10:04:32;;;;;;;4.03;1.60;;;11.60;99.90;;;;;;4993018;28;20250;-70
2023/05/03 10:07:00;;;;;;;4.32;1.40;;;11.70;99.90;;;;;;4993200;28;20193;-70
2023/05/03 10:09:29;;;;;;;4.10;1.27;;;11.80;99.90;;;;;;4992777;28;20046;-70
2023/05/03 10:11:58;;;;;;;3.17;1.75;;;11.80;99.90;;;;;;4992984;28;20064;-70
2023/05/03 10:14:24;;;;;;;3.92;1.73;;;11.90;99.90;;;;;;4992705;28;20516;-70
2023/05/03 10:16:56;;;;;;;3.67;1.45;;;11.90;99.90;;;;;;4992799;28;20137;-70
2023/05/03 10:19:46;;;;;;;2.75;1.30;;;12.40;99.90;;;;;;4992912;28;20140;-70
2023/05/03 10:22:12;;;;;;;5.95;1.33;;;;;;;;;;4976656;28;20031;-70
2023/05/03 10:25:01;;;;;;;3.25;1.23;;;12.30;99.90;;;;;;4992726;28;20511;-70
2023/05/03 10:27:45;;;;;;;2.63;1.20;;;12.30;99.90;;;;;;4976525;28;20042;-70
2023/05/03 10:30:33;;;;;;;4.45;1.30;;;12.40;99.90;;;;;;4976122;28;20053;-70
2023/05/03 10:33:11;;;;;;;3.42;1.48;;;12.40;99.90;;;;;;4976355;28;20047;-69
2023/05/03 10:35:41;;;;;;;2.55;1.45;;;12.50;99.90;;;;;;4976310;28;20089;-70
2023/05/03 10:38:20;;;;;;;3.72;1.20;;;12.70;99.90;;;;;;4992504;28;20038;-70
2023/05/03 10:40:45;;;;;;;4.22;1.80;;;12.40;99.90;;;;;;4992262;28;20077;-70
2023/05/03 10:43:32;;;;;;;4.55;1.70;;;12.30;99.90;;;;;;4991539;28;20077;-70
2023/05/03 10:46:02;;;;;;;3.85;1.60;;;12.20;99.90;;;;;;4992400;28;20077;-70
2023/05/03 10:48:28;;;;;;;3.20;1.58;;;12.40;99.90;;;;;;4992416;28;20057;-70
2023/05/03 10:51:17;;;;;;;2.85;1.48;;;11.70;99.90;;;;;;4992037;28;20109;-70
2023/05/03 10:53:43;;;;;;;4.93;1.63;;;12.10;99.90;;;;;;4991538;28;20038;-70
2023/05/03 10:56:14;;;;;;;4.20;1.40;;;12.30;99.90;;;;;;4991332;28;20042;-71
2023/05/03 10:58:48;;;;;;;4.30;1.65;;;12.50;99.90;;;;;;4990191;28;20039;-71
2023/05/03 11:01:17;;;;;;;3.03;1.83;;;12.40;99.90;;;;;;4986656;28;20124;-69
2023/05/03 11:04:03;;;;;;;3.22;1.27;;;12.30;99.90;;;;;;4988046;28;20092;-71
2023/05/03 11:06:42;;;;;;;4.93;2.53;;;12.60;99.90;;;;;;5015252;28;20038;-70
2023/05/03 11:09:10;;;;;;;3.30;1.65;;;12.10;99.90;;;;;;4988096;28;20057;-69
2023/05/03 11:11:38;;;;;;;4.03;1.52;;;12.40;99.90;;;;;;5021468;28;20499;-69
2023/05/03 11:14:05;;;;;;;3.28;1.65;;;12.10;99.90;;;;;;4987748;28;20073;-68
2023/05/03 11:16:31;;;;;;;3.22;1.60;;;;;;;;;;5021092;28;20069;-70
2023/05/03 11:18:57;;;;;;;3.95;1.40;;;;;;;;;;4987689;28;20535;-70
2023/05/03 11:21:23;;;;;;;6.90;1.60;;;;;;;;;;4988227;28;20042;-69
2023/05/03 11:23:49;;;;;;;2.30;1.42;;;;;;;;;;4989565;28;20054;-69
2023/05/03 11:26:15;;;;;;;7.47;1.77;;;;;;;;;;4987921;28;20049;-69
2023/05/03 11:28:42;;;;;;;3.17;2.00;;;;;;;;;;4971953;28;20448;-70
2023/05/03 11:31:08;;;;;;;3.30;1.60;;;12.60;99.90;;;;;;4988025;28;20053;-68
2023/05/03 11:33:36;;;;;;;4.22;1.33;;;12.80;99.90;;;;;;4988160;28;20638;-69
2023/05/03 11:36:03;;;;;;;3.45;1.67;;;12.60;99.90;;;;;;4987691;28;20042;-70
2023/05/03 11:38:31;;;;;;;3.75;1.55;;;12.80;99.90;;;;;;4987355;28;20050;-69
2023/05/03 11:40:57;;;;;;;2.67;1.83;;;;;;;;;;4981045;28;20504;-70
2023/05/03 11:43:24;;;;;;;4.03;1.90;;;13.00;99.90;;;;;;4983614;28;20112;-70
2023/05/03 11:45:51;;;;;;;2.75;1.92;;;;;;;;;;4982924;28;20049;-70
2023/05/03 11:48:17;;;;;;;4.60;1.38;;;;;;;;;;4987580;28;20042;-70
2023/05/03 11:50:50;;;;;;;4.47;1.58;;;13.70;99.90;;;;;;4968237;28;20500;-69
2023/05/03 11:53:17;;;;;;;6.53;1.80;;;13.60;99.90;;;;;;4999888;28;20046;-69
2023/05/03 11:55:46;;;;;;;3.67;1.63;;;13.90;99.90;;;;;;4985650;28;20027;-69
2023/05/03 11:58:20;;;;;;;3.10;1.73;;;13.30;99.90;;;;;;4992994;28;20038;-69
2023/05/03 12:00:47;;;;;;;7.38;1.95;;;;;;;;;;4984358;28;20049;-69
2023/05/03 12:03:25;;;;;;;4.55;2.20;;;13.30;99.90;;;;;;4985931;28;20104;-69
2023/05/03 12:05:54;;;;;;;4.43;2.00;;;13.70;99.90;;;;;;4986394;28;20049;-69
2023/05/03 12:08:21;;;;;;;3.42;1.92;;;13.80;99.90;;;;;;4986369;28;20046;-69
2023/05/03 12:10:49;;;;;;;3.45;1.65;;;14.20;99.90;;;;;;4987240;28;20042;-69
2023/05/03 12:13:25;;;;;;;2.20;1.50;;;13.80;99.90;;;;;;4970922;28;20054;-70
2023/05/03 12:15:56;;;;;;;3.17;1.48;;;14.00;99.90;;;;;;4991057;28;20050;-69
2023/05/03 12:18:22;;;;;;;12.07;2.08;;;14.00;99.90;;;;;;4989275;28;20113;-70
2023/05/03 12:20:56;;;;;;;3.42;1.63;;;14.50;99.90;;;;;;4990872;28;20177;-75
2023/05/03 12:23:23;;;;;;;2.67;1.58;;;14.20;99.90;;;;;;4991800;28;20050;-71
2023/05/03 12:25:50;;;;;;;4.80;1.60;;;13.90;99.90;;;;;;4974604;28;20039;-70
2023/05/03 12:28:16;;;;;;;3.42;1.58;;;13.50;99.90;;;;;;4984872;28;20038;-69
2023/05/03 12:30:42;;;;;;;5.65;1.75;;;13.00;99.90;;;;;;5000803;28;20049;-69
2023/05/03 12:33:08;;;;;;;6.28;1.83;;;13.50;99.90;;;;;;5009652;28;20128;-70
2023/05/03 12:35:34;;;;;;;6.78;2.13;;;14.30;99.90;;;;;;4993339;28;20045;-70
2023/05/03 12:38:03;;;;;;;2.28;1.58;;;13.70;99.90;;;;;;5010111;28;20038;-70
2023/05/03 12:40:28;;;;;;;3.83;1.67;;;13.30;99.90;;;;;;5009716;28;20396;-69
2023/05/03 12:42:57;;;;;;;4.20;1.65;;;;;;;;;;5010486;28;20038;-70
2023/05/03 12:45:23;;;;;;;5.82;1.75;;;;;;;;;;4989399;28;20090;-70
2023/05/03 12:47:49;;;;;;;4.63;1.75;;;;;;;;;;4989806;28;20035;-69
2023/05/03 12:50:15;;;;;;;6.50;1.77;;;14.30;99.90;;;;;;4974325;28;20144;-69
2023/05/03 12:52:41;;;;;;;3.33;1.90;;;14.60;99.90;;;;;;4970492;28;20496;-70
2023/05/03 12:55:07;;;;;;;5.22;3.25;;;14.90;99.90;;;;;;4990365;28;20057;-70
2023/05/03 12:57:32;;;;;;;5.40;1.75;;;13.90;99.90;;;;;;5006136;28;20039;-70
2023/05/03 12:59:58;;;;;;;4.07;1.77;;;14.20;99.90;;;;;;4991579;28;20405;-70
2023/05/03 13:02:25;;;;;;;6.43;1.70;;;13.90;99.90;;;;;;5017061;28;20544;-70
2023/05/03 13:04:54;;;;;;;5.43;2.97;;;13.70;99.90;;;;;;4986426;28;20081;-71
2023/05/03 13:07:26;;;;;;;4.65;1.98;;;13.70;99.90;;;;;;4990359;28;20129;-71
2023/05/03 13:09:53;;;;;;;4.07;1.80;;;13.90;99.90;;;;;;5017174;28;20731;-69
2023/05/03 13:12:19;;;;;;;5.38;2.33;;;;;;;;;;4990223;28;20046;-70
2023/05/03 13:14:46;;;;;;;2.85;1.77;;;14.00;99.90;;;;;;5022008;28;20034;-70
2023/05/03 13:17:12;;;;;;;3.70;1.90;;;14.40;99.90;;;;;;4991414;28;20042;-70
2023/05/03 13:19:40;;;;;;;5.40;1.95;;;14.20;99.90;;;;;;4991661;28;20109;-70
2023/05/03 13:22:06;;;;;;;7.55;2.25;;;14.60;99.90;;;;;;4978356;28;20038;-70
2023/05/03 13:24:31;;;;;;;4.82;2.28;;;13.80;99.90;;;;;;4992606;28;20421;-70
2023/05/03 13:26:57;;;;;;;4.28;1.73;;;;;;;;;;4993207;28;20204;-69
2023/05/03 13:29:23;;;;;;;2.88;1.58;;;14.00;99.90;;;;;;4994617;28;20044;-70